sensor_id;sensor_type;location;lat;lon;timestamp;temperature;humidity
50989;DHT22;37008;52.210;21.112;2023-08-01T00:00:02;16.80;99.90
50989;DHT22;37008;52.210;21.112;2023-08-01T00:02:28;16.80;99.90
50989;DHT22;37008;52.210;21.112;2023-08-01T00:04:54;16.80;99.90
50989;DHT22;37008;52.210;21.112;2023-08-01T00:07:20;16.80;99.90
50989;DHT22;37008;52.210;21.112;2023-08-01T00:09:45;16.80;99.90
50989;DHT22;37008;52.210;21.112;2023-08-01T00:12:11;16.80;99.90
50989;DHT22;37008;52.210;21.112;2023-08-01T00:14:37;16.80;99.90
50989;DHT22;37008;52.210;21.112;2023-08-01T00:17:02;16.80;99.90
50989;DHT22;37008;52.210;21.112;2023-08-01T00:19:28;16.80;99.90
50989;DHT22;37008;52.210;21.112;2023-08-01T00:21:54;16.80;99.90
50989;DHT22;37008;52.210;21.112;2023-08-01T00:24:21;16.80;99.90
50989;DHT22;37008;52.210;21.112;2023-08-01T00:26:46;16.70;99.90
50989;DHT22;37008;52.210;21.112;2023-08-01T00:29:13;16.80;99.90
50989;DHT22;37008;52.210;21.112;2023-08-01T00:31:39;16.80;99.90
50989;DHT22;37008;52.210;21.112;2023-08-01T00:34:05;16.70;99.90
50989;DHT22;37008;52.210;21.112;2023-08-01T00:36:31;16.80;99.90
50989;DHT22;37008;52.210;21.112;2023-08-01T00:38:57;16.70;99.90
50989;DHT22;37008;52.210;21.112;2023-08-01T00:41:22;16.70;99.90
50989;DHT22;37008;52.210;21.112;2023-08-01T00:43:48;16.70;99.90
50989;DHT22;37008;52.210;21.112;2023-08-01T00:46:14;16.70;99.90
50989;DHT22;37008;52.210;21.112;2023-08-01T00:48:40;16.70;99.90
50989;DHT22;37008;52.210;21.112;2023-08-01T00:51:07;16.70;99.90
50989;DHT22;37008;52.210;21.112;2023-08-01T00:53:35;16.70;99.90
50989;DHT22;37008;52.210;21.112;2023-08-01T00:56:01;16.70;99.90
50989;DHT22;37008;52.210;21.112;2023-08-01T00:58:27;16.70;99.90
50989;DHT22;37008;52.210;21.112;2023-08-01T01:42:59;16.50;99.90
50989;DHT22;37008;52.210;21.112;2023-08-01T01:45:25;16.50;99.90
50989;DHT22;37008;52.210;21.112;2023-08-01T01:47:51;16.50;99.90
50989;DHT22;37008;52.210;21.112;2023-08-01T01:50:16;16.50;99.90
50989;DHT22;37008;52.210;21.112;2023-08-01T01:52:43;16.50;99.90
50989;DHT22;37008;52.210;21.112;2023-08-01T01:55:09;16.50;99.90
50989;DHT22;37008;52.210;21.112;2023-08-01T01:57:35;16.50;99.90
50989;DHT22;37008;52.210;21.112;2023-08-01T02:00:03;16.50;99.90
50989;DHT22;37008;52.210;21.112;2023-08-01T02:02:28;16.50;99.90
50989;DHT22;37008;52.210;21.112;2023-08-01T02:04:54;16.50;99.90
50989;DHT22;37008;52.210;21.112;2023-08-01T02:07:19;16.50;99.90
50989;DHT22;37008;52.210;21.112;2023-08-01T02:09:45;16.50;99.90
50989;DHT22;37008;52.210;21.112;2023-08-01T02:12:12;16.50;99.90
50989;DHT22;37008;52.210;21.112;2023-08-01T02:14:40;16.50;99.90
50989;DHT22;37008;52.210;21.112;2023-08-01T02:17:06;16.50;99.90
50989;DHT22;37008;52.210;21.112;2023-08-01T02:19:32;16.40;99.90
50989;DHT22;37008;52.210;21.112;2023-08-01T02:21:58;16.40;99.90
50989;DHT22;37008;52.210;21.112;2023-08-01T02:24:23;16.40;99.90
50989;DHT22;37008;52.210;21.112;2023-08-01T02:26:50;16.30;99.90
50989;DHT22;37008;52.210;21.112;2023-08-01T02:29:16;16.30;99.90
50989;DHT22;37008;52.210;21.112;2023-08-01T02:31:41;16.20;99.90
50989;DHT22;37008;52.210;21.112;2023-08-01T02:34:07;16.20;99.90
50989;DHT22;37008;52.210;21.112;2023-08-01T02:36:33;16.20;99.90
50989;DHT22;37008;52.210;21.112;2023-08-01T02:38:58;16.10;99.90
50989;DHT22;37008;52.210;21.112;2023-08-01T02:41:24;16.10;99.90
50989;DHT22;37008;52.210;21.112;2023-08-01T02:43:49;16.00;99.90
50989;DHT22;37008;52.210;21.112;2023-08-01T02:46:15;15.90;99.90
50989;DHT22;37008;52.210;21.112;2023-08-01T02:48:40;15.90;99.90
50989;DHT22;37008;52.210;21.112;2023-08-01T02:51:06;15.90;99.90
50989;DHT22;37008;52.210;21.112;2023-08-01T02:53:35;15.90;99.90
50989;DHT22;37008;52.210;21.112;2023-08-01T02:56:00;15.90;99.90
50989;DHT22;37008;52.210;21.112;2023-08-01T02:58:26;15.90;99.90
50989;DHT22;37008;52.210;21.112;2023-08-01T03:00:52;15.80;99.90
50989;DHT22;37008;52.210;21.112;2023-08-01T03:03:17;15.80;99.90
50989;DHT22;37008;52.210;21.112;2023-08-01T03:05:43;15.80;99.90
50989;DHT22;37008;52.210;21.112;2023-08-01T03:08:08;15.80;99.90
50989;DHT22;37008;52.210;21.112;2023-08-01T03:10:34;15.90;99.90
50989;DHT22;37008;52.210;21.112;2023-08-01T03:12:59;15.90;99.90
50989;DHT22;37008;52.210;21.112;2023-08-01T03:15:27;15.90;99.90
50989;DHT22;37008;52.210;21.112;2023-08-01T03:17:52;16.00;99.90
50989;DHT22;37008;52.210;21.112;2023-08-01T03:20:18;16.00;99.90
50989;DHT22;37008;52.210;21.112;2023-08-01T03:22:44;16.10;99.90
50989;DHT22;37008;52.210;21.112;2023-08-01T03:25:09;16.10;99.90
50989;DHT22;37008;52.210;21.112;2023-08-01T03:27:35;16.10;99.90
50989;DHT22;37008;52.210;21.112;2023-08-01T03:30:02;16.20;99.90
50989;DHT22;37008;52.210;21.112;2023-08-01T03:32:29;16.20;99.90
50989;DHT22;37008;52.210;21.112;2023-08-01T03:34:55;16.30;99.90
50989;DHT22;37008;52.210;21.112;2023-08-01T03:37:20;16.30;99.90
50989;DHT22;37008;52.210;21.112;2023-08-01T03:39:46;16.40;99.90
50989;DHT22;37008;52.210;21.112;2023-08-01T03:42:12;16.40;99.90
50989;DHT22;37008;52.210;21.112;2023-08-01T03:44:37;16.40;99.90
50989;DHT22;37008;52.210;21.112;2023-08-01T03:47:03;16.50;99.90
50989;DHT22;37008;52.210;21.112;2023-08-01T03:49:29;16.50;99.90
50989;DHT22;37008;52.210;21.112;2023-08-01T03:51:54;16.50;99.90
50989;DHT22;37008;52.210;21.112;2023-08-01T03:54:20;16.50;99.90
50989;DHT22;37008;52.210;21.112;2023-08-01T03:56:46;16.60;99.90
50989;DHT22;37008;52.210;21.112;2023-08-01T03:59:13;16.60;99.90
50989;DHT22;37008;52.210;21.112;2023-08-01T04:01:38;16.70;99.90
50989;DHT22;37008;52.210;21.112;2023-08-01T04:04:04;16.70;99.90
50989;DHT22;37008;52.210;21.112;2023-08-01T04:06:30;16.70;99.90
50989;DHT22;37008;52.210;21.112;2023-08-01T04:08:55;16.80;99.90
50989;DHT22;37008;52.210;21.112;2023-08-01T04:11:22;16.80;99.90
50989;DHT22;37008;52.210;21.112;2023-08-01T04:13:48;16.90;99.90
50989;DHT22;37008;52.210;21.112;2023-08-01T04:16:13;16.90;99.90
50989;DHT22;37008;52.210;21.112;2023-08-01T04:18:39;17.00;99.90
50989;DHT22;37008;52.210;21.112;2023-08-01T04:21:06;17.00;99.90
50989;DHT22;37008;52.210;21.112;2023-08-01T04:23:33;17.10;99.90
50989;DHT22;37008;52.210;21.112;2023-08-01T04:25:58;17.10;99.90
50989;DHT22;37008;52.210;21.112;2023-08-01T04:28:25;17.10;99.90
50989;DHT22;37008;52.210;21.112;2023-08-01T04:30:51;17.20;99.90
50989;DHT22;37008;52.210;21.112;2023-08-01T04:33:17;17.30;99.90
50989;DHT22;37008;52.210;21.112;2023-08-01T04:35:43;17.30;99.90
50989;DHT22;37008;52.210;21.112;2023-08-01T04:38:08;17.40;99.90
50989;DHT22;37008;52.210;21.112;2023-08-01T04:40:36;17.40;99.90
50989;DHT22;37008;52.210;21.112;2023-08-01T04:43:02;17.40;99.90
50989;DHT22;37008;52.210;21.112;2023-08-01T04:45:27;17.50;99.90
50989;DHT22;37008;52.210;21.112;2023-08-01T04:47:53;17.50;99.90
50989;DHT22;37008;52.210;21.112;2023-08-01T04:50:19;17.50;99.90
50989;DHT22;37008;52.210;21.112;2023-08-01T04:52:45;17.60;99.90
50989;DHT22;37008;52.210;21.112;2023-08-01T04:55:11;17.60;99.90
50989;DHT22;37008;52.210;21.112;2023-08-01T04:57:36;17.70;99.90
50989;DHT22;37008;52.210;21.112;2023-08-01T05:00:03;17.80;99.90
50989;DHT22;37008;52.210;21.112;2023-08-01T05:02:29;17.90;99.90
50989;DHT22;37008;52.210;21.112;2023-08-01T05:04:54;18.00;99.90
50989;DHT22;37008;52.210;21.112;2023-08-01T05:07:20;18.10;99.90
50989;DHT22;37008;52.210;21.112;2023-08-01T05:09:46;18.30;99.90
50989;DHT22;37008;52.210;21.112;2023-08-01T05:12:12;18.30;99.90
50989;DHT22;37008;52.210;21.112;2023-08-01T05:14:37;18.50;99.90
50989;DHT22;37008;52.210;21.112;2023-08-01T05:17:03;18.60;99.90
50989;DHT22;37008;52.210;21.112;2023-08-01T05:19:29;18.70;99.90
50989;DHT22;37008;52.210;21.112;2023-08-01T05:21:54;18.90;99.90
50989;DHT22;37008;52.210;21.112;2023-08-01T05:24:20;19.00;99.90
50989;DHT22;37008;52.210;21.112;2023-08-01T05:26:46;19.20;99.90
50989;DHT22;37008;52.210;21.112;2023-08-01T05:29:12;19.30;99.90
50989;DHT22;37008;52.210;21.112;2023-08-01T05:31:38;19.50;99.90
50989;DHT22;37008;52.210;21.112;2023-08-01T05:34:03;19.60;99.90
50989;DHT22;37008;52.210;21.112;2023-08-01T05:36:29;19.70;99.90
50989;DHT22;37008;52.210;21.112;2023-08-01T05:38:55;19.70;99.90
50989;DHT22;37008;52.210;21.112;2023-08-01T05:41:21;19.70;99.30
50989;DHT22;37008;52.210;21.112;2023-08-01T05:43:48;19.70;98.80
50989;DHT22;37008;52.210;21.112;2023-08-01T05:46:14;19.70;98.50
50989;DHT22;37008;52.210;21.112;2023-08-01T05:48:40;19.70;98.10
50989;DHT22;37008;52.210;21.112;2023-08-01T05:51:05;19.70;97.60
50989;DHT22;37008;52.210;21.112;2023-08-01T05:53:31;19.70;97.40
50989;DHT22;37008;52.210;21.112;2023-08-01T05:55:57;19.80;97.10
50989;DHT22;37008;52.210;21.112;2023-08-01T05:58:22;19.90;97.40
50989;DHT22;37008;52.210;21.112;2023-08-01T06:00:48;20.00;97.40
50989;DHT22;37008;52.210;21.112;2023-08-01T06:03:14;20.10;97.20
50989;DHT22;37008;52.210;21.112;2023-08-01T06:05:39;20.20;96.90
50989;DHT22;37008;52.210;21.112;2023-08-01T06:08:06;20.40;96.60
50989;DHT22;37008;52.210;21.112;2023-08-01T06:10:33;20.40;95.80
50989;DHT22;37008;52.210;21.112;2023-08-01T06:12:59;20.50;95.20
50989;DHT22;37008;52.210;21.112;2023-08-01T06:15:24;20.60;94.60
50989;DHT22;37008;52.210;21.112;2023-08-01T06:17:50;20.70;93.80
50989;DHT22;37008;52.210;21.112;2023-08-01T06:20:15;20.70;92.80
50989;DHT22;37008;52.210;21.112;2023-08-01T06:22:41;20.70;92.10
50989;DHT22;37008;52.210;21.112;2023-08-01T06:25:08;20.80;91.80
50989;DHT22;37008;52.210;21.112;2023-08-01T06:27:34;20.90;91.40
50989;DHT22;37008;52.210;21.112;2023-08-01T06:29:59;21.10;90.70
50989;DHT22;37008;52.210;21.112;2023-08-01T06:32:25;21.20;90.40
50989;DHT22;37008;52.210;21.112;2023-08-01T06:34:51;21.30;90.00
50989;DHT22;37008;52.210;21.112;2023-08-01T06:37:16;21.30;88.90
50989;DHT22;37008;52.210;21.112;2023-08-01T06:39:42;21.30;87.50
50989;DHT22;37008;52.210;21.112;2023-08-01T06:42:07;21.30;87.00
50989;DHT22;37008;52.210;21.112;2023-08-01T06:44:33;21.40;87.60
50989;DHT22;37008;52.210;21.112;2023-08-01T06:46:59;21.40;87.80
50989;DHT22;37008;52.210;21.112;2023-08-01T06:49:24;21.50;87.80
50989;DHT22;37008;52.210;21.112;2023-08-01T06:51:50;21.60;87.30
50989;DHT22;37008;52.210;21.112;2023-08-01T06:54:15;21.70;87.80
50989;DHT22;37008;52.210;21.112;2023-08-01T06:56:41;21.80;87.20
50989;DHT22;37008;52.210;21.112;2023-08-01T06:59:15;21.80;85.40
50989;DHT22;37008;52.210;21.112;2023-08-01T07:01:41;21.90;85.20
50989;DHT22;37008;52.210;21.112;2023-08-01T07:04:09;22.00;85.10
50989;DHT22;37008;52.210;21.112;2023-08-01T07:06:35;22.10;84.00
50989;DHT22;37008;52.210;21.112;2023-08-01T07:09:01;22.20;83.40
50989;DHT22;37008;52.210;21.112;2023-08-01T07:11:26;22.30;82.60
50989;DHT22;37008;52.210;21.112;2023-08-01T07:13:52;22.40;82.40
50989;DHT22;37008;52.210;21.112;2023-08-01T07:16:17;22.50;82.00
50989;DHT22;37008;52.210;21.112;2023-08-01T07:18:43;22.70;80.80
50989;DHT22;37008;52.210;21.112;2023-08-01T07:21:09;22.80;80.60
50989;DHT22;37008;52.210;21.112;2023-08-01T07:23:34;23.00;80.40
50989;DHT22;37008;52.210;21.112;2023-08-01T07:26:03;23.20;79.60
50989;DHT22;37008;52.210;21.112;2023-08-01T07:28:29;23.30;79.00
50989;DHT22;37008;52.210;21.112;2023-08-01T07:31:02;23.40;77.70
50989;DHT22;37008;52.210;21.112;2023-08-01T07:33:28;23.50;77.00
50989;DHT22;37008;52.210;21.112;2023-08-01T07:35:54;23.50;76.90
50989;DHT22;37008;52.210;21.112;2023-08-01T07:38:20;23.60;76.40
50989;DHT22;37008;52.210;21.112;2023-08-01T07:40:45;23.80;75.90
50989;DHT22;37008;52.210;21.112;2023-08-01T07:43:11;23.90;75.50
50989;DHT22;37008;52.210;21.112;2023-08-01T07:45:38;24.10;75.60
50989;DHT22;37008;52.210;21.112;2023-08-01T07:48:04;24.40;74.80
50989;DHT22;37008;52.210;21.112;2023-08-01T07:50:30;24.50;73.10
50989;DHT22;37008;52.210;21.112;2023-08-01T07:52:55;24.70;72.60
50989;DHT22;37008;52.210;21.112;2023-08-01T07:55:21;24.80;72.10
50989;DHT22;37008;52.210;21.112;2023-08-01T07:57:48;24.90;70.90
50989;DHT22;37008;52.210;21.112;2023-08-01T08:00:14;24.90;70.50
50989;DHT22;37008;52.210;21.112;2023-08-01T08:02:41;25.00;70.70
50989;DHT22;37008;52.210;21.112;2023-08-01T08:05:07;25.10;69.90
50989;DHT22;37008;52.210;21.112;2023-08-01T08:07:33;25.20;69.00
50989;DHT22;37008;52.210;21.112;2023-08-01T08:09:59;25.20;69.00
50989;DHT22;37008;52.210;21.112;2023-08-01T08:12:24;25.20;68.30
50989;DHT22;37008;52.210;21.112;2023-08-01T08:14:50;25.20;67.90
50989;DHT22;37008;52.210;21.112;2023-08-01T08:17:15;25.20;67.90
50989;DHT22;37008;52.210;21.112;2023-08-01T08:19:41;25.30;68.80
50989;DHT22;37008;52.210;21.112;2023-08-01T08:22:07;25.40;68.50
50989;DHT22;37008;52.210;21.112;2023-08-01T08:24:32;25.50;67.60
50989;DHT22;37008;52.210;21.112;2023-08-01T08:26:58;25.60;68.20
50989;DHT22;37008;52.210;21.112;2023-08-01T08:29:23;25.60;68.00
50989;DHT22;37008;52.210;21.112;2023-08-01T08:31:50;25.60;66.80
50989;DHT22;37008;52.210;21.112;2023-08-01T08:34:16;25.50;67.00
50989;DHT22;37008;52.210;21.112;2023-08-01T08:36:41;25.40;66.40
50989;DHT22;37008;52.210;21.112;2023-08-01T08:39:07;25.40;66.80
50989;DHT22;37008;52.210;21.112;2023-08-01T08:41:38;25.30;67.00
50989;DHT22;37008;52.210;21.112;2023-08-01T08:44:08;25.10;66.20
50989;DHT22;37008;52.210;21.112;2023-08-01T08:46:41;25.00;66.50
50989;DHT22;37008;52.210;21.112;2023-08-01T08:49:08;24.80;66.50
50989;DHT22;37008;52.210;21.112;2023-08-01T08:51:36;24.60;66.70
50989;DHT22;37008;52.210;21.112;2023-08-01T08:54:02;24.50;67.70
50989;DHT22;37008;52.210;21.112;2023-08-01T08:56:29;24.30;68.50
50989;DHT22;37008;52.210;21.112;2023-08-01T08:58:57;24.20;68.90
50989;DHT22;37008;52.210;21.112;2023-08-01T09:01:22;24.00;69.40
50989;DHT22;37008;52.210;21.112;2023-08-01T09:03:48;23.90;70.20
50989;DHT22;37008;52.210;21.112;2023-08-01T09:06:20;23.70;71.10
50989;DHT22;37008;52.210;21.112;2023-08-01T09:09:00;23.60;71.90
50989;DHT22;37008;52.210;21.112;2023-08-01T09:11:26;23.50;72.30
50989;DHT22;37008;52.210;21.112;2023-08-01T09:13:52;23.40;73.30
50989;DHT22;37008;52.210;21.112;2023-08-01T09:16:18;23.30;72.50
50989;DHT22;37008;52.210;21.112;2023-08-01T09:18:49;23.30;73.20
50989;DHT22;37008;52.210;21.112;2023-08-01T09:21:18;23.20;73.60
50989;DHT22;37008;52.210;21.112;2023-08-01T09:23:44;23.10;73.60
50989;DHT22;37008;52.210;21.112;2023-08-01T09:26:16;23.00;73.70
50989;DHT22;37008;52.210;21.112;2023-08-01T09:28:42;23.00;73.80
50989;DHT22;37008;52.210;21.112;2023-08-01T09:31:09;23.00;74.00
50989;DHT22;37008;52.210;21.112;2023-08-01T09:33:42;23.10;74.10
50989;DHT22;37008;52.210;21.112;2023-08-01T09:36:08;23.30;74.30
50989;DHT22;37008;52.210;21.112;2023-08-01T09:38:35;23.50;73.50
50989;DHT22;37008;52.210;21.112;2023-08-01T09:41:01;23.70;73.40
50989;DHT22;37008;52.210;21.112;2023-08-01T09:43:37;23.90;72.40
50989;DHT22;37008;52.210;21.112;2023-08-01T09:46:03;24.20;70.80
50989;DHT22;37008;52.210;21.112;2023-08-01T09:48:31;24.30;69.80
50989;DHT22;37008;52.210;21.112;2023-08-01T09:51:14;24.40;69.30
50989;DHT22;37008;52.210;21.112;2023-08-01T09:53:48;24.50;69.20
50989;DHT22;37008;52.210;21.112;2023-08-01T09:56:17;24.50;68.10
50989;DHT22;37008;52.210;21.112;2023-08-01T09:58:46;24.50;68.50
50989;DHT22;37008;52.210;21.112;2023-08-01T10:01:13;24.40;68.60
50989;DHT22;37008;52.210;21.112;2023-08-01T10:03:42;24.30;68.20
50989;DHT22;37008;52.210;21.112;2023-08-01T10:06:10;24.30;68.50
50989;DHT22;37008;52.210;21.112;2023-08-01T10:08:36;24.40;68.20
50989;DHT22;37008;52.210;21.112;2023-08-01T10:11:04;24.40;67.70
50989;DHT22;37008;52.210;21.112;2023-08-01T10:13:30;24.40;67.90
50989;DHT22;37008;52.210;21.112;2023-08-01T10:15:58;24.50;67.80
50989;DHT22;37008;52.210;21.112;2023-08-01T10:18:25;24.50;67.50
50989;DHT22;37008;52.210;21.112;2023-08-01T10:20:51;24.50;67.50
50989;DHT22;37008;52.210;21.112;2023-08-01T10:23:18;24.40;67.70
50989;DHT22;37008;52.210;21.112;2023-08-01T10:25:45;24.40;68.50
50989;DHT22;37008;52.210;21.112;2023-08-01T10:28:10;24.30;69.10
50989;DHT22;37008;52.210;21.112;2023-08-01T10:30:36;24.20;70.50
50989;DHT22;37008;52.210;21.112;2023-08-01T10:33:02;24.00;71.30
50989;DHT22;37008;52.210;21.112;2023-08-01T10:35:38;23.80;71.80
50989;DHT22;37008;52.210;21.112;2023-08-01T10:38:08;23.50;72.50
50989;DHT22;37008;52.210;21.112;2023-08-01T10:40:39;23.20;73.00
50989;DHT22;37008;52.210;21.112;2023-08-01T10:43:05;22.80;74.60
50989;DHT22;37008;52.210;21.112;2023-08-01T10:45:31;22.60;76.80
50989;DHT22;37008;52.210;21.112;2023-08-01T10:48:07;22.30;78.70
50989;DHT22;37008;52.210;21.112;2023-08-01T10:50:33;22.10;81.60
50989;DHT22;37008;52.210;21.112;2023-08-01T10:53:09;22.00;83.60
50989;DHT22;37008;52.210;21.112;2023-08-01T10:55:45;21.90;87.60
50989;DHT22;37008;52.210;21.112;2023-08-01T10:58:12;21.80;90.70
50989;DHT22;37008;52.210;21.112;2023-08-01T11:00:41;21.70;92.00
50989;DHT22;37008;52.210;21.112;2023-08-01T11:03:07;21.70;93.80
50989;DHT22;37008;52.210;21.112;2023-08-01T11:05:34;21.70;95.90
50989;DHT22;37008;52.210;21.112;2023-08-01T11:08:02;21.70;97.90
50989;DHT22;37008;52.210;21.112;2023-08-01T11:10:29;21.70;98.50
50989;DHT22;37008;52.210;21.112;2023-08-01T11:12:56;21.70;99.40
50989;DHT22;37008;52.210;21.112;2023-08-01T11:15:22;21.80;99.90
50989;DHT22;37008;52.210;21.112;2023-08-01T11:17:49;21.80;99.90
50989;DHT22;37008;52.210;21.112;2023-08-01T11:20:16;21.80;99.90
50989;DHT22;37008;52.210;21.112;2023-08-01T11:22:57;21.90;99.90
50989;DHT22;37008;52.210;21.112;2023-08-01T11:25:40;21.90;99.90
50989;DHT22;37008;52.210;21.112;2023-08-01T11:28:11;22.00;99.90
50989;DHT22;37008;52.210;21.112;2023-08-01T11:30:37;22.00;99.90
50989;DHT22;37008;52.210;21.112;2023-08-01T11:33:17;22.10;99.90
50989;DHT22;37008;52.210;21.112;2023-08-01T11:35:43;22.20;99.90
50989;DHT22;37008;52.210;21.112;2023-08-01T11:38:10;22.20;99.90
50989;DHT22;37008;52.210;21.112;2023-08-01T11:40:37;22.20;99.90
50989;DHT22;37008;52.210;21.112;2023-08-01T11:43:03;22.20;99.90
50989;DHT22;37008;52.210;21.112;2023-08-01T11:45:29;22.30;99.90
50989;DHT22;37008;52.210;21.112;2023-08-01T11:47:55;22.30;99.90
50989;DHT22;37008;52.210;21.112;2023-08-01T11:50:22;22.30;99.90
50989;DHT22;37008;52.210;21.112;2023-08-01T11:52:51;22.30;99.90
50989;DHT22;37008;52.210;21.112;2023-08-01T11:55:30;22.30;99.90
50989;DHT22;37008;52.210;21.112;2023-08-01T11:58:00;22.30;99.90
50989;DHT22;37008;52.210;21.112;2023-08-01T12:00:29;22.40;99.90
50989;DHT22;37008;52.210;21.112;2023-08-01T12:03:13;22.50;99.90
50989;DHT22;37008;52.210;21.112;2023-08-01T12:05:40;22.50;99.90
50989;DHT22;37008;52.210;21.112;2023-08-01T12:08:13;22.60;99.90
50989;DHT22;37008;52.210;21.112;2023-08-01T12:10:41;22.60;99.90
50989;DHT22;37008;52.210;21.112;2023-08-01T12:13:22;22.70;99.90
50989;DHT22;37008;52.210;21.112;2023-08-01T12:15:51;22.80;99.90
50989;DHT22;37008;52.210;21.112;2023-08-01T12:18:24;22.90;99.90
50989;DHT22;37008;52.210;21.112;2023-08-01T12:20:53;22.90;99.90
50989;DHT22;37008;52.210;21.112;2023-08-01T12:23:19;23.10;99.90
50989;DHT22;37008;52.210;21.112;2023-08-01T12:25:48;23.10;99.90
50989;DHT22;37008;52.210;21.112;2023-08-01T12:28:15;23.10;99.90
50989;DHT22;37008;52.210;21.112;2023-08-01T12:30:42;23.10;98.70
50989;DHT22;37008;52.210;21.112;2023-08-01T12:33:08;23.00;97.90
50989;DHT22;37008;52.210;21.112;2023-08-01T12:35:38;23.00;97.00
50989;DHT22;37008;52.210;21.112;2023-08-01T12:38:04;22.90;96.60
50989;DHT22;37008;52.210;21.112;2023-08-01T12:40:29;22.90;96.20
50989;DHT22;37008;52.210;21.112;2023-08-01T12:42:57;22.90;95.30
50989;DHT22;37008;52.210;21.112;2023-08-01T12:45:22;22.90;95.20
50989;DHT22;37008;52.210;21.112;2023-08-01T12:47:54;22.90;95.40
50989;DHT22;37008;52.210;21.112;2023-08-01T12:50:20;22.80;95.30
50989;DHT22;37008;52.210;21.112;2023-08-01T12:52:47;22.80;94.80
50989;DHT22;37008;52.210;21.112;2023-08-01T12:55:13;22.80;94.00
50989;DHT22;37008;52.210;21.112;2023-08-01T12:57:39;22.80;93.80
50989;DHT22;37008;52.210;21.112;2023-08-01T13:00:05;22.80;93.70
50989;DHT22;37008;52.210;21.112;2023-08-01T13:02:30;22.80;93.50
50989;DHT22;37008;52.210;21.112;2023-08-01T13:04:56;22.90;93.60
50989;DHT22;37008;52.210;21.112;2023-08-01T13:07:22;23.10;93.70
50989;DHT22;37008;52.210;21.112;2023-08-01T13:09:48;23.30;93.30
50989;DHT22;37008;52.210;21.112;2023-08-01T13:12:13;23.40;93.10
50989;DHT22;37008;52.210;21.112;2023-08-01T13:14:50;23.60;92.40
50989;DHT22;37008;52.210;21.112;2023-08-01T13:17:19;23.70;91.50
50989;DHT22;37008;52.210;21.112;2023-08-01T13:19:44;23.80;91.00
50989;DHT22;37008;52.210;21.112;2023-08-01T13:22:11;23.90;90.50
50989;DHT22;37008;52.210;21.112;2023-08-01T13:24:36;24.00;89.90
50989;DHT22;37008;52.210;21.112;2023-08-01T13:27:02;24.10;88.20
50989;DHT22;37008;52.210;21.112;2023-08-01T13:29:28;24.20;86.00
50989;DHT22;37008;52.210;21.112;2023-08-01T13:31:53;24.20;85.70
50989;DHT22;37008;52.210;21.112;2023-08-01T13:34:19;24.20;85.10
50989;DHT22;37008;52.210;21.112;2023-08-01T13:36:45;24.10;84.40
50989;DHT22;37008;52.210;21.112;2023-08-01T13:39:10;24.00;83.60
50989;DHT22;37008;52.210;21.112;2023-08-01T13:41:36;23.90;83.40
50989;DHT22;37008;52.210;21.112;2023-08-01T13:44:02;23.80;83.80
50989;DHT22;37008;52.210;21.112;2023-08-01T13:46:28;23.80;83.50
50989;DHT22;37008;52.210;21.112;2023-08-01T13:48:54;23.70;83.20
50989;DHT22;37008;52.210;21.112;2023-08-01T13:51:20;23.60;83.00
50989;DHT22;37008;52.210;21.112;2023-08-01T13:53:46;23.60;83.30
50989;DHT22;37008;52.210;21.112;2023-08-01T13:56:12;23.50;83.50
50989;DHT22;37008;52.210;21.112;2023-08-01T13:58:38;23.50;84.00
50989;DHT22;37008;52.210;21.112;2023-08-01T14:01:07;23.40;84.00
50989;DHT22;37008;52.210;21.112;2023-08-01T14:03:33;23.30;84.70
50989;DHT22;37008;52.210;21.112;2023-08-01T14:06:12;23.20;85.60
50989;DHT22;37008;52.210;21.112;2023-08-01T14:08:39;23.10;86.10
50989;DHT22;37008;52.210;21.112;2023-08-01T14:11:06;22.80;87.00
50989;DHT22;37008;52.210;21.112;2023-08-01T14:13:32;22.60;88.70
50989;DHT22;37008;52.210;21.112;2023-08-01T14:15:58;22.40;90.50
50989;DHT22;37008;52.210;21.112;2023-08-01T14:18:24;22.20;91.70
50989;DHT22;37008;52.210;21.112;2023-08-01T14:20:50;22.00;92.80
50989;DHT22;37008;52.210;21.112;2023-08-01T14:23:15;21.90;94.20
50989;DHT22;37008;52.210;21.112;2023-08-01T14:25:41;21.90;95.50
50989;DHT22;37008;52.210;21.112;2023-08-01T14:28:07;21.90;96.20
50989;DHT22;37008;52.210;21.112;2023-08-01T14:30:33;22.10;96.70
50989;DHT22;37008;52.210;21.112;2023-08-01T14:33:00;22.20;96.80
50989;DHT22;37008;52.210;21.112;2023-08-01T14:35:26;22.30;96.00
50989;DHT22;37008;52.210;21.112;2023-08-01T14:37:52;22.40;95.40
50989;DHT22;37008;52.210;21.112;2023-08-01T14:40:17;22.60;95.20
50989;DHT22;37008;52.210;21.112;2023-08-01T14:42:43;22.60;94.70
50989;DHT22;37008;52.210;21.112;2023-08-01T14:45:09;22.70;94.60
50989;DHT22;37008;52.210;21.112;2023-08-01T14:47:34;22.70;94.00
50989;DHT22;37008;52.210;21.112;2023-08-01T14:50:03;22.70;94.00
50989;DHT22;37008;52.210;21.112;2023-08-01T14:52:30;22.70;93.70
50989;DHT22;37008;52.210;21.112;2023-08-01T14:54:55;22.60;93.70
50989;DHT22;37008;52.210;21.112;2023-08-01T14:57:21;22.50;94.00
50989;DHT22;37008;52.210;21.112;2023-08-01T14:59:46;22.40;94.50
50989;DHT22;37008;52.210;21.112;2023-08-01T15:02:13;22.30;94.80
50989;DHT22;37008;52.210;21.112;2023-08-01T15:04:38;22.20;96.10
50989;DHT22;37008;52.210;21.112;2023-08-01T15:07:04;21.90;98.80
50989;DHT22;37008;52.210;21.112;2023-08-01T15:09:30;21.60;99.90
50989;DHT22;37008;52.210;21.112;2023-08-01T15:11:55;21.00;99.90
50989;DHT22;37008;52.210;21.112;2023-08-01T15:14:21;20.60;99.90
50989;DHT22;37008;52.210;21.112;2023-08-01T15:16:48;20.20;99.90
50989;DHT22;37008;52.210;21.112;2023-08-01T15:19:14;19.90;99.90
50989;DHT22;37008;52.210;21.112;2023-08-01T15:21:40;19.80;99.90
50989;DHT22;37008;52.210;21.112;2023-08-01T15:24:06;19.70;99.90
50989;DHT22;37008;52.210;21.112;2023-08-01T15:26:32;19.70;99.90
50989;DHT22;37008;52.210;21.112;2023-08-01T15:28:58;19.60;99.90
50989;DHT22;37008;52.210;21.112;2023-08-01T15:31:23;19.60;99.90
50989;DHT22;37008;52.210;21.112;2023-08-01T15:33:49;19.50;99.90
50989;DHT22;37008;52.210;21.112;2023-08-01T15:36:15;19.50;99.90
50989;DHT22;37008;52.210;21.112;2023-08-01T15:38:40;19.50;99.90
50989;DHT22;37008;52.210;21.112;2023-08-01T15:41:06;19.50;99.90
50989;DHT22;37008;52.210;21.112;2023-08-01T15:43:37;19.50;99.90
50989;DHT22;37008;52.210;21.112;2023-08-01T15:46:03;19.60;99.90
50989;DHT22;37008;52.210;21.112;2023-08-01T15:48:30;19.70;99.90
50989;DHT22;37008;52.210;21.112;2023-08-01T15:50:56;19.80;99.90
50989;DHT22;37008;52.210;21.112;2023-08-01T15:53:24;19.80;99.90